createdAt,value
2018-11-02T00:00:22.779Z,88.30
2018-11-02T00:02:50.850Z,88.30
2018-11-02T00:05:19.185Z,88.30
2018-11-02T00:10:15.365Z,87.90
2018-11-02T00:15:11.444Z,88.00
2018-11-02T00:17:40.542Z,87.80
2018-11-02T00:20:08.847Z,87.60
2018-11-02T00:22:37.089Z,87.60
2018-11-02T00:25:05.473Z,88.00
2018-11-02T00:27:33.680Z,87.90
2018-11-02T00:30:01.968Z,87.80
2018-11-02T00:34:58.064Z,88.00
2018-11-02T00:37:26.332Z,88.10
2018-11-02T00:39:54.629Z,87.90
2018-11-02T00:42:22.870Z,87.80
2018-11-02T00:44:51.250Z,87.40
2018-11-02T00:49:47.294Z,87.20
2018-11-02T00:52:15.601Z,87.60
2018-11-02T00:54:43.870Z,87.80
2018-11-02T00:57:12.167Z,87.80
2018-11-02T01:02:08.317Z,87.30
2018-11-02T01:04:36.554Z,87.40
2018-11-02T01:07:05.682Z,87.60
2018-11-02T01:19:33.099Z,87.50
2018-11-02T01:22:03.338Z,87.80
2018-11-02T01:24:31.533Z,87.80
2018-11-02T01:29:28.477Z,87.40
2018-11-02T01:31:56.995Z,87.60
2018-11-02T01:36:53.748Z,87.80
2018-11-02T01:41:50.147Z,88.20
2018-11-02T01:44:18.455Z,88.70
2018-11-02T01:46:47.294Z,88.30
2018-11-02T01:49:15.408Z,88.00
2018-11-02T01:51:43.638Z,87.80
2018-11-02T01:54:11.992Z,88.20
2018-11-02T02:04:05.085Z,87.70
2018-11-02T02:06:34.974Z,87.30
2018-11-02T02:09:03.856Z,87.20
2018-11-02T02:11:32.369Z,87.90
2018-11-02T02:14:00.603Z,88.20
2018-11-02T02:21:24.644Z,88.50
2018-11-02T02:28:48.656Z,88.70
2018-11-02T02:31:16.871Z,88.50
2018-11-02T02:33:45.149Z,87.80
2018-11-02T02:36:13.450Z,87.70
2018-11-02T02:38:41.790Z,87.80
2018-11-02T02:41:09.984Z,87.40
2018-11-02T02:43:38.287Z,87.70
2018-11-02T02:46:06.564Z,88.10
2018-11-02T02:48:34.882Z,88.40
2018-11-02T02:51:03.137Z,88.50
2018-11-02T02:53:31.458Z,88.50
2018-11-02T03:00:55.413Z,88.60
2018-11-02T03:03:23.642Z,88.60
2018-11-02T03:05:51.992Z,88.80
2018-11-02T03:08:20.187Z,89.00
2018-11-02T03:10:48.715Z,89.00
2018-11-02T03:18:13.702Z,89.50
2018-11-02T03:20:41.983Z,89.80
2018-11-02T03:23:10.320Z,90.50
2018-11-02T03:25:38.523Z,91.00
2018-11-02T03:30:35.605Z,91.40
2018-11-02T03:33:03.875Z,91.70
2018-11-02T03:35:32.905Z,91.70
2018-11-02T03:42:56.851Z,92.40
2018-11-02T03:45:25.162Z,92.90
2018-11-02T03:47:53.441Z,92.60
2018-11-02T03:50:21.869Z,92.20
2018-11-02T03:52:51.277Z,91.60
2018-11-02T03:55:19.856Z,91.90
2018-11-02T03:57:48.341Z,92.00
2018-11-02T04:00:16.506Z,92.40
2018-11-02T04:02:44.737Z,92.30
2018-11-02T04:05:13.053Z,92.50
2018-11-02T04:10:10.152Z,93.20
2018-11-02T04:15:06.658Z,92.40
2018-11-02T04:20:02.721Z,92.40
2018-11-02T04:25:02.528Z,92.60
2018-11-02T04:27:30.779Z,92.70
2018-11-02T04:29:59.072Z,92.90
2018-11-02T04:32:27.353Z,92.60
2018-11-02T04:34:55.690Z,92.80
2018-11-02T04:37:23.874Z,92.50
2018-11-02T04:42:20.924Z,92.80
2018-11-02T04:44:49.112Z,92.40
2018-11-02T04:47:17.488Z,92.40
2018-11-02T04:54:41.431Z,92.10
2018-11-02T04:57:09.743Z,91.80
2018-11-02T04:59:37.969Z,91.70
2018-11-02T05:02:06.420Z,92.00
2018-11-02T05:04:34.506Z,92.30
2018-11-02T05:11:59.753Z,91.70
2018-11-02T05:14:28.135Z,91.30
2018-11-02T05:24:20.308Z,91.90
2018-11-02T05:26:48.592Z,91.60
2018-11-02T05:29:16.865Z,91.80
2018-11-02T05:34:13.002Z,92.30
2018-11-02T05:36:41.313Z,92.60
2018-11-02T05:41:39.052Z,93.70
2018-11-02T05:44:07.370Z,93.60
2018-11-02T05:49:03.994Z,93.00
2018-11-02T05:51:32.285Z,93.40
2018-11-02T05:54:00.516Z,93.40
2018-11-02T05:56:28.765Z,93.30
2018-11-02T05:58:56.972Z,93.20
2018-11-02T06:01:29.550Z,93.00
2018-11-02T06:03:57.600Z,92.80
2018-11-02T06:06:25.989Z,92.80
2018-11-02T06:08:54.232Z,92.40
2018-11-02T06:11:22.456Z,93.20
2018-11-02T06:13:50.838Z,92.90
2018-11-02T06:16:19.034Z,92.90
2018-11-02T06:23:43.105Z,92.80
2018-11-02T06:26:11.288Z,92.50
2018-11-02T06:28:39.612Z,92.00
2018-11-02T06:33:37.370Z,91.90
2018-11-02T06:36:05.806Z,92.20
2018-11-02T06:38:33.937Z,92.90
2018-11-02T06:41:02.298Z,92.80
2018-11-02T06:45:58.313Z,93.00
2018-11-02T06:48:26.622Z,92.60
2018-11-02T06:53:23.739Z,91.80
2018-11-02T06:55:51.839Z,91.60
2018-11-02T07:00:48.029Z,91.80
2018-11-02T07:03:16.390Z,91.40
2018-11-02T07:08:12.579Z,90.30
2018-11-02T07:10:40.708Z,90.20
2018-11-02T07:13:09.346Z,90.30
2018-11-02T07:15:38.626Z,90.20
2018-11-02T07:18:06.720Z,88.00
2018-11-02T07:25:34.858Z,82.50
2018-11-02T07:30:30.996Z,82.40
2018-11-02T07:33:00.170Z,82.10
2018-11-02T07:35:29.245Z,81.00
2018-11-02T07:37:57.422Z,79.20
2018-11-02T07:40:25.817Z,77.10
2018-11-02T07:42:53.972Z,74.60
2018-11-02T07:45:22.335Z,74.60
2018-11-02T07:47:51.585Z,72.40
2018-11-02T07:50:19.726Z,69.30
2018-11-02T07:55:15.822Z,69.50
2018-11-02T07:57:44.090Z,68.60
2018-11-02T08:02:45.358Z,66.40
2018-11-02T08:05:14.453Z,64.90
2018-11-02T08:07:42.692Z,64.00
2018-11-02T08:12:39.029Z,62.60
2018-11-02T08:17:39.077Z,62.30
2018-11-02T08:20:09.690Z,61.50
2018-11-02T08:25:06.866Z,61.80
2018-11-02T08:27:35.220Z,60.10
2018-11-02T08:30:03.654Z,59.90
2018-11-02T08:32:31.896Z,58.80
2018-11-02T08:35:01.108Z,58.10
2018-11-02T08:37:29.200Z,57.20
2018-11-02T08:39:57.514Z,57.00
2018-11-02T08:47:21.464Z,57.40
2018-11-02T08:54:45.469Z,55.80
2018-11-02T08:57:19.712Z,54.70
2018-11-02T08:59:47.894Z,53.10
2018-11-02T09:04:43.880Z,52.40
2018-11-02T09:07:12.153Z,53.10
2018-11-02T09:09:40.413Z,54.10
2018-11-02T09:17:05.534Z,54.30
2018-11-02T09:22:01.831Z,55.70
2018-11-02T09:26:57.985Z,55.10
2018-11-02T09:29:27.065Z,56.10
2018-11-02T09:31:55.336Z,55.30
2018-11-02T09:34:23.663Z,54.20
2018-11-02T09:36:51.945Z,52.60
2018-11-02T09:41:48.118Z,53.10
2018-11-02T09:44:16.306Z,54.30
2018-11-02T09:49:16.796Z,52.60
2018-11-02T09:51:45.079Z,51.90
2018-11-02T09:56:40.970Z,51.20
2018-11-02T09:59:09.365Z,51.00
2018-11-02T10:04:05.433Z,50.00
2018-11-02T10:09:01.649Z,49.30
2018-11-02T10:18:54.613Z,49.40
2018-11-02T10:21:22.937Z,49.00
2018-11-02T10:28:47.070Z,49.80
2018-11-02T10:31:15.370Z,49.80
2018-11-02T10:33:43.637Z,50.40
2018-11-02T10:36:11.836Z,49.70
2018-11-02T10:38:40.397Z,50.00
2018-11-02T10:43:37.670Z,49.70
2018-11-02T10:46:06.228Z,49.60
2018-11-02T10:48:34.329Z,49.80
2018-11-02T10:51:02.633Z,50.90
2018-11-02T10:55:58.766Z,51.60
2018-11-02T10:58:27.100Z,51.50
2018-11-02T11:02:03.527Z,51.40
2018-11-02T11:04:31.602Z,53.30
2018-11-02T11:06:59.900Z,52.70
2018-11-02T11:09:28.171Z,52.50
2018-11-02T11:14:24.718Z,54.10
2018-11-02T11:16:54.462Z,53.50
2018-11-02T11:19:22.966Z,54.20
2018-11-02T11:21:51.201Z,53.90
2018-11-02T11:24:19.446Z,53.70
2018-11-02T11:26:48.561Z,53.90
2018-11-02T11:31:45.618Z,54.10
2018-11-02T11:34:13.948Z,54.00
2018-11-02T11:39:12.434Z,54.50
2018-11-02T11:44:09.548Z,54.70
2018-11-02T11:49:06.902Z,54.30
2018-11-02T11:51:35.024Z,53.30
2018-11-02T11:56:31.266Z,52.60
2018-11-02T12:01:27.353Z,52.80
2018-11-02T12:06:23.442Z,52.50
2018-11-02T12:11:19.522Z,50.60
2018-11-02T12:16:15.692Z,50.50
2018-11-02T12:18:44.157Z,50.20
2018-11-02T12:21:12.274Z,51.00
2018-11-02T12:23:41.370Z,50.60
2018-11-02T12:31:06.573Z,51.00
2018-11-02T12:33:34.852Z,51.70
2018-11-02T12:36:03.736Z,52.20
2018-11-02T12:38:32.705Z,51.50
2018-11-02T12:41:02.213Z,51.60
2018-11-02T12:43:30.444Z,51.60
2018-11-02T12:45:58.656Z,52.30
2018-11-02T12:48:26.973Z,52.80
2018-11-02T12:50:55.247Z,53.00
2018-11-02T12:58:19.349Z,53.20
2018-11-02T13:03:16.602Z,52.60
2018-11-02T13:05:44.912Z,52.50
2018-11-02T13:08:13.985Z,52.40
2018-11-02T13:10:42.317Z,52.40
2018-11-02T13:15:38.514Z,52.70
2018-11-02T13:20:34.570Z,52.70
2018-11-02T13:23:02.901Z,53.10
2018-11-02T13:25:31.266Z,53.10
2018-11-02T13:27:59.417Z,53.10
2018-11-02T13:30:27.696Z,53.40
2018-11-02T13:37:52.109Z,53.40
2018-11-02T13:40:20.405Z,53.40
2018-11-02T13:42:48.656Z,53.00
2018-11-02T13:45:17.744Z,53.10
2018-11-02T13:50:14.074Z,53.00
2018-11-02T13:52:42.795Z,52.80
2018-11-02T13:55:11.830Z,52.90
2018-11-02T14:02:37.800Z,53.20
2018-11-02T14:05:07.253Z,53.10
2018-11-02T14:07:35.506Z,53.10
2018-11-02T14:10:04.349Z,53.00
2018-11-02T14:12:33.009Z,52.50
2018-11-02T14:17:29.513Z,53.30
2018-11-02T14:19:57.690Z,53.50
2018-11-02T14:22:25.941Z,53.70
2018-11-02T14:24:54.260Z,53.30
2018-11-02T14:27:22.520Z,53.30
2018-11-02T14:29:51.640Z,53.30
2018-11-02T14:32:19.890Z,53.00
2018-11-02T14:34:48.149Z,53.60
2018-11-02T14:37:16.467Z,54.00
2018-11-02T14:44:40.824Z,55.40
2018-11-02T14:47:09.648Z,55.80
2018-11-02T14:49:37.829Z,56.30
2018-11-02T14:52:06.169Z,56.60
2018-11-02T15:02:02.153Z,57.10
2018-11-02T15:06:58.198Z,57.40
2018-11-02T15:14:22.705Z,58.80
2018-11-02T15:19:18.760Z,59.30
2018-11-02T15:21:47.038Z,59.20
2018-11-02T15:31:39.336Z,58.00
2018-11-02T15:34:08.045Z,58.00
2018-11-02T15:36:36.277Z,57.60
2018-11-02T15:39:07.984Z,57.40
2018-11-02T15:41:36.617Z,57.20
2018-11-02T15:44:05.316Z,56.70
2018-11-02T15:46:33.585Z,56.40
2018-11-02T15:51:30.117Z,56.60
2018-11-02T15:53:58.353Z,56.50
2018-11-02T15:56:26.636Z,56.50
2018-11-02T15:58:54.970Z,57.00
2018-11-02T16:03:52.647Z,57.20
2018-11-02T16:11:17.892Z,56.70
2018-11-02T16:13:46.601Z,57.00
2018-11-02T16:16:14.849Z,56.80
2018-11-02T16:18:43.098Z,56.70
2018-11-02T16:21:12.281Z,56.70
2018-11-02T16:23:40.550Z,56.20
2018-11-02T16:26:09.000Z,55.90
2018-11-02T16:31:05.311Z,55.60
2018-11-02T16:36:02.322Z,56.40
2018-11-02T16:40:59.691Z,58.10
2018-11-02T16:43:28.111Z,59.00
2018-11-02T16:45:56.721Z,60.20
2018-11-02T16:48:24.873Z,61.30
2018-11-02T16:50:53.230Z,62.50
2018-11-02T16:53:21.442Z,63.10
2018-11-02T16:55:49.767Z,64.40
2018-11-02T16:58:18.041Z,65.60
2018-11-02T17:03:14.141Z,66.80
2018-11-02T17:05:42.428Z,67.40
2018-11-02T17:08:10.764Z,68.00
2018-11-02T17:10:39.136Z,68.60
2018-11-02T17:13:07.237Z,70.10
2018-11-02T17:15:35.541Z,70.50
2018-11-02T17:18:04.025Z,71.20
2018-11-02T17:20:32.099Z,71.90
2018-11-02T17:25:28.317Z,72.70
2018-11-02T17:27:56.479Z,72.50
2018-11-02T17:30:24.803Z,72.70
2018-11-02T17:32:53.100Z,72.70
2018-11-02T17:35:21.674Z,72.90
2018-11-02T17:37:50.032Z,73.00
2018-11-02T17:40:18.460Z,72.50
2018-11-02T17:42:46.652Z,72.40
2018-11-02T17:47:42.978Z,72.50
2018-11-02T17:50:12.153Z,72.30
2018-11-02T17:52:40.564Z,72.30
2018-11-02T17:55:09.996Z,72.70
2018-11-02T17:57:38.303Z,73.00
2018-11-02T18:02:35.210Z,72.50
2018-11-02T18:05:03.519Z,72.80
2018-11-02T18:07:32.706Z,73.10
2018-11-02T18:10:00.898Z,73.30
2018-11-02T18:14:56.988Z,73.90
2018-11-02T18:19:54.779Z,73.20
2018-11-02T18:24:51.377Z,73.10
2018-11-02T18:29:47.524Z,74.20
2018-11-02T18:32:15.808Z,74.70
2018-11-02T18:39:41.377Z,75.70
2018-11-02T18:42:09.679Z,75.80
2018-11-02T18:44:38.008Z,76.30
2018-11-02T18:47:06.290Z,76.70
2018-11-02T18:52:02.493Z,77.30
2018-11-02T18:54:31.093Z,78.20
2018-11-02T18:59:28.021Z,80.00
2018-11-02T19:01:56.352Z,80.00
2018-11-02T19:04:24.608Z,80.50
2018-11-02T19:06:52.840Z,81.00
2018-11-02T19:09:21.199Z,81.30
2018-11-02T19:11:50.676Z,81.50
2018-11-02T19:14:18.935Z,82.00
2018-11-02T19:16:47.228Z,81.50
2018-11-02T19:24:14.511Z,82.00
2018-11-02T19:26:42.744Z,81.90
2018-11-02T19:29:11.073Z,82.00
2018-11-02T19:31:39.300Z,82.00
2018-11-02T19:34:07.798Z,82.30
2018-11-02T19:36:36.101Z,82.70
2018-11-02T19:41:34.166Z,82.90
2018-11-02T19:44:02.340Z,82.40
2018-11-02T19:46:30.685Z,82.70
2018-11-02T19:48:58.944Z,83.00
2018-11-02T19:51:27.217Z,83.60
2018-11-02T19:53:59.160Z,83.70
2018-11-02T19:56:27.502Z,83.80
2018-11-02T19:58:55.774Z,83.80
2018-11-02T20:01:23.996Z,83.30
2018-11-02T20:06:20.116Z,83.90
2018-11-02T20:08:48.379Z,84.50
2018-11-02T20:11:21.856Z,84.80
2018-11-02T20:13:50.351Z,85.10
2018-11-02T20:16:18.551Z,85.10
2018-11-02T20:21:15.966Z,85.30
2018-11-02T20:23:44.167Z,85.30
2018-11-02T20:28:41.615Z,84.80
2018-11-02T20:31:09.932Z,85.50
2018-11-02T20:33:38.176Z,86.20
2018-11-02T20:36:07.589Z,86.60
2018-11-02T20:38:35.868Z,86.20
2018-11-02T20:41:04.169Z,85.80
2018-11-02T20:43:32.461Z,86.40
2018-11-02T20:46:00.747Z,86.70
2018-11-02T20:48:29.012Z,86.90
2018-11-02T20:50:58.140Z,86.90
2018-11-02T20:55:54.213Z,86.70
2018-11-02T20:58:24.551Z,87.40
2018-11-02T21:00:52.789Z,87.90
2018-11-02T21:03:21.103Z,87.60
2018-11-02T21:05:49.594Z,88.10
2018-11-02T21:08:21.749Z,88.50
2018-11-02T21:10:50.164Z,88.30
2018-11-02T21:13:18.337Z,88.50
2018-11-02T21:15:46.663Z,88.80
2018-11-02T21:20:46.872Z,88.50
2018-11-02T21:28:12.490Z,88.60
2018-11-02T21:33:08.624Z,89.00
2018-11-02T21:35:36.886Z,88.80
2018-11-02T21:38:05.679Z,89.30
2018-11-02T21:40:33.826Z,88.80
2018-11-02T21:45:30.018Z,89.80
2018-11-02T21:47:58.544Z,89.50
2018-11-02T21:55:23.105Z,90.50
2018-11-02T21:57:51.518Z,90.20
2018-11-02T22:00:20.829Z,90.20
2018-11-02T22:02:49.995Z,90.50
2018-11-02T22:05:18.005Z,90.20
2018-11-02T22:07:47.488Z,90.10
2018-11-02T22:10:16.049Z,90.10
2018-11-02T22:20:10.987Z,90.20
2018-11-02T22:22:39.687Z,90.40
2018-11-02T22:25:08.988Z,90.10
2018-11-02T22:27:37.180Z,90.90
2018-11-02T22:32:36.628Z,90.00
2018-11-02T22:35:04.930Z,90.20
2018-11-02T22:37:33.624Z,90.20
2018-11-02T22:40:01.916Z,89.70
2018-11-02T22:42:30.159Z,90.20
2018-11-02T22:44:58.493Z,90.50
2018-11-02T22:47:26.769Z,90.00
2018-11-02T22:49:54.970Z,90.00
2018-11-02T22:57:18.947Z,90.60
2018-11-02T22:59:47.315Z,90.90
2018-11-02T23:02:15.509Z,90.60
2018-11-02T23:04:43.792Z,90.70
2018-11-02T23:07:12.064Z,90.70
2018-11-02T23:09:40.436Z,90.80
2018-11-02T23:12:08.629Z,91.30
2018-11-02T23:17:06.092Z,91.50
2018-11-02T23:19:34.377Z,91.40
2018-11-02T23:22:02.590Z,91.70
2018-11-02T23:24:30.853Z,91.90
2018-11-02T23:26:59.148Z,91.70
2018-11-02T23:29:27.448Z,92.10
2018-11-02T23:31:55.708Z,91.80
2018-11-02T23:34:23.911Z,91.70
2018-11-02T23:36:52.182Z,91.60
2018-11-02T23:41:48.396Z,91.60
2018-11-02T23:46:44.471Z,91.80
2018-11-02T23:51:41.035Z,90.80
2018-11-02T23:56:37.191Z,91.50
2018-11-02T23:59:05.625Z,91.70
